sensor_id;sensor_type;location;lat;lon;timestamp;P1;durP1;ratioP1;P2;durP2;ratioP2
13366;SDS011;6752;52.612;13.630;2023-05-13T00:04:56;343.30;;;65.43;;
13366;SDS011;6752;52.612;13.630;2023-05-13T00:10:03;1999.90;;;999.90;;
13366;SDS011;6752;52.612;13.630;2023-05-13T00:15:01;518.30;;;94.43;;
13366;SDS011;6752;52.612;13.630;2023-05-13T00:20:04;472.70;;;80.03;;
13366;SDS011;6752;52.612;13.630;2023-05-13T00:25:06;348.80;;;58.15;;
13366;SDS011;6752;52.612;13.630;2023-05-13T00:30:08;446.77;;;73.43;;
13366;SDS011;6752;52.612;13.630;2023-05-13T00:35:11;48.38;;;16.17;;
13366;SDS011;6752;52.612;13.630;2023-05-13T00:40:18;478.17;;;75.55;;
13366;SDS011;6752;52.612;13.630;2023-05-13T00:45:18;231.60;;;35.08;;
13366;SDS011;6752;52.612;13.630;2023-05-13T00:50:21;688.20;;;101.57;;
13366;SDS011;6752;52.612;13.630;2023-05-13T00:55:23;455.55;;;55.90;;
13366;SDS011;6752;52.612;13.630;2023-05-13T01:00:26;998.87;;;121.53;;
13366;SDS011;6752;52.612;13.630;2023-05-13T01:10:33;899.05;;;143.70;;
13366;SDS011;6752;52.612;13.630;2023-05-13T01:15:37;1136.85;;;159.15;;
13366;SDS011;6752;52.612;13.630;2023-05-13T01:20:39;353.98;;;58.65;;
13366;SDS011;6752;52.612;13.630;2023-05-13T01:30:41;667.72;;;105.68;;
13366;SDS011;6752;52.612;13.630;2023-05-13T01:35:44;77.93;;;21.87;;
13366;SDS011;6752;52.612;13.630;2023-05-13T01:40:46;1750.00;;;221.35;;
13366;SDS011;6752;52.612;13.630;2023-05-13T01:45:48;105.87;;;24.42;;
13366;SDS011;6752;52.612;13.630;2023-05-13T01:50:51;13.52;;;6.78;;
13366;SDS011;6752;52.612;13.630;2023-05-13T01:55:53;1175.47;;;158.65;;
13366;SDS011;6752;52.612;13.630;2023-05-13T02:00:55;14.85;;;8.07;;
13366;SDS011;6752;52.612;13.630;2023-05-13T02:05:58;1999.90;;;999.90;;
13366;SDS011;6752;52.612;13.630;2023-05-13T02:11:00;24.60;;;11.63;;
13366;SDS011;6752;52.612;13.630;2023-05-13T02:16:02;14.43;;;8.30;;
13366;SDS011;6752;52.612;13.630;2023-05-13T02:21:05;20.25;;;9.63;;
13366;SDS011;6752;52.612;13.630;2023-05-13T02:26:07;15.88;;;7.82;;
13366;SDS011;6752;52.612;13.630;2023-05-13T02:36:11;10.15;;;6.60;;
13366;SDS011;6752;52.612;13.630;2023-05-13T02:41:14;11.45;;;7.75;;
13366;SDS011;6752;52.612;13.630;2023-05-13T02:46:16;15.00;;;8.43;;
13366;SDS011;6752;52.612;13.630;2023-05-13T02:51:19;1999.90;;;999.90;;
13366;SDS011;6752;52.612;13.630;2023-05-13T02:56:21;25.35;;;16.33;;
13366;SDS011;6752;52.612;13.630;2023-05-13T03:06:25;12.07;;;8.05;;
13366;SDS011;6752;52.612;13.630;2023-05-13T03:11:28;119.47;;;20.45;;
13366;SDS011;6752;52.612;13.630;2023-05-13T03:16:30;15.07;;;8.38;;
13366;SDS011;6752;52.612;13.630;2023-05-13T03:21:32;13.80;;;8.20;;
13366;SDS011;6752;52.612;13.630;2023-05-13T03:26:35;674.10;;;119.25;;
13366;SDS011;6752;52.612;13.630;2023-05-13T03:31:37;250.90;;;42.10;;
13366;SDS011;6752;52.612;13.630;2023-05-13T03:36:39;732.67;;;103.38;;
13366;SDS011;6752;52.612;13.630;2023-05-13T03:41:42;16.45;;;8.60;;
13366;SDS011;6752;52.612;13.630;2023-05-13T03:46:44;23.30;;;11.07;;
13366;SDS011;6752;52.612;13.630;2023-05-13T03:51:46;12.93;;;7.87;;
13366;SDS011;6752;52.612;13.630;2023-05-13T03:56:49;1999.90;;;999.90;;
13366;SDS011;6752;52.612;13.630;2023-05-13T04:01:51;16.67;;;11.38;;
13366;SDS011;6752;52.612;13.630;2023-05-13T04:06:54;9.60;;;7.35;;
13366;SDS011;6752;52.612;13.630;2023-05-13T04:11:56;14.23;;;8.13;;
13366;SDS011;6752;52.612;13.630;2023-05-13T04:16:58;16.10;;;7.53;;
13366;SDS011;6752;52.612;13.630;2023-05-13T04:37:06;13.18;;;8.40;;
13366;SDS011;6752;52.612;13.630;2023-05-13T04:42:09;12.52;;;8.07;;
13366;SDS011;6752;52.612;13.630;2023-05-13T04:47:11;10.40;;;8.45;;
13366;SDS011;6752;52.612;13.630;2023-05-13T04:52:13;15.73;;;8.32;;
13366;SDS011;6752;52.612;13.630;2023-05-13T04:57:16;1999.90;;;999.90;;
13366;SDS011;6752;52.612;13.630;2023-05-13T05:12:22;320.05;;;56.83;;
13366;SDS011;6752;52.612;13.630;2023-05-13T05:22:26;1469.85;;;158.05;;
13366;SDS011;6752;52.612;13.630;2023-05-13T05:27:29;300.10;;;59.40;;
13366;SDS011;6752;52.612;13.630;2023-05-13T05:32:31;1327.75;;;212.57;;
13366;SDS011;6752;52.612;13.630;2023-05-13T05:37:33;310.33;;;60.20;;
13366;SDS011;6752;52.612;13.630;2023-05-13T05:42:36;939.33;;;145.35;;
13366;SDS011;6752;52.612;13.630;2023-05-13T05:47:38;539.95;;;78.70;;
13366;SDS011;6752;52.612;13.630;2023-05-13T05:52:40;114.47;;;32.67;;
13366;SDS011;6752;52.612;13.630;2023-05-13T05:57:43;566.17;;;115.55;;
13366;SDS011;6752;52.612;13.630;2023-05-13T06:02:45;1808.00;;;210.35;;
13366;SDS011;6752;52.612;13.630;2023-05-13T06:07:48;668.95;;;112.28;;
13366;SDS011;6752;52.612;13.630;2023-05-13T06:12:50;544.85;;;75.72;;
13366;SDS011;6752;52.612;13.630;2023-05-13T06:17:52;29.33;;;15.27;;
13366;SDS011;6752;52.612;13.630;2023-05-13T06:22:55;115.53;;;21.52;;
13366;SDS011;6752;52.612;13.630;2023-05-13T06:27:57;513.45;;;102.87;;
13366;SDS011;6752;52.612;13.630;2023-05-13T06:32:59;1949.72;;;280.33;;
13366;SDS011;6752;52.612;13.630;2023-05-13T06:38:02;1749.15;;;308.23;;
13366;SDS011;6752;52.612;13.630;2023-05-13T06:43:04;511.98;;;121.68;;
13366;SDS011;6752;52.612;13.630;2023-05-13T06:48:07;236.62;;;66.22;;
13366;SDS011;6752;52.612;13.630;2023-05-13T06:53:09;429.45;;;105.40;;
13366;SDS011;6752;52.612;13.630;2023-05-13T06:58:14;647.97;;;141.80;;
13366;SDS011;6752;52.612;13.630;2023-05-13T07:03:16;916.72;;;169.02;;
13366;SDS011;6752;52.612;13.630;2023-05-13T07:08:18;1044.05;;;213.23;;
13366;SDS011;6752;52.612;13.630;2023-05-13T07:13:21;1825.00;;;311.50;;
13366;SDS011;6752;52.612;13.630;2023-05-13T07:18:23;1256.60;;;234.10;;
13366;SDS011;6752;52.612;13.630;2023-05-13T07:23:26;1516.10;;;275.75;;
13366;SDS011;6752;52.612;13.630;2023-05-13T07:28:28;1999.90;;;311.10;;
13366;SDS011;6752;52.612;13.630;2023-05-13T07:33:30;1564.82;;;287.38;;
13366;SDS011;6752;52.612;13.630;2023-05-13T07:43:35;1999.90;;;358.25;;
13366;SDS011;6752;52.612;13.630;2023-05-13T07:48:37;1831.88;;;324.80;;
13366;SDS011;6752;52.612;13.630;2023-05-13T07:58:41;1375.80;;;216.00;;
13366;SDS011;6752;52.612;13.630;2023-05-13T08:03:44;1999.90;;;523.50;;
13366;SDS011;6752;52.612;13.630;2023-05-13T08:08:46;1999.90;;;350.73;;
13366;SDS011;6752;52.612;13.630;2023-05-13T08:13:49;1999.90;;;398.98;;
13366;SDS011;6752;52.612;13.630;2023-05-13T08:18:50;1999.90;;;428.90;;
13366;SDS011;6752;52.612;13.630;2023-05-13T08:23:53;1999.90;;;403.75;;
13366;SDS011;6752;52.612;13.630;2023-05-13T08:28:55;1999.90;;;358.52;;
13366;SDS011;6752;52.612;13.630;2023-05-13T08:33:57;1999.90;;;499.23;;
13366;SDS011;6752;52.612;13.630;2023-05-13T08:39:00;1999.90;;;525.47;;
13366;SDS011;6752;52.612;13.630;2023-05-13T08:44:03;1999.90;;;473.83;;
13366;SDS011;6752;52.612;13.630;2023-05-13T08:49:05;1999.90;;;397.55;;
13366;SDS011;6752;52.612;13.630;2023-05-13T08:54:08;1999.90;;;445.58;;
13366;SDS011;6752;52.612;13.630;2023-05-13T08:59:09;1985.72;;;319.85;;
13366;SDS011;6752;52.612;13.630;2023-05-13T09:09:14;1999.90;;;574.33;;
13366;SDS011;6752;52.612;13.630;2023-05-13T09:39:28;1999.90;;;452.23;;
13366;SDS011;6752;52.612;13.630;2023-05-13T09:44:31;1999.90;;;378.90;;
13366;SDS011;6752;52.612;13.630;2023-05-13T09:49:33;1999.90;;;511.70;;
13366;SDS011;6752;52.612;13.630;2023-05-13T09:54:35;1999.90;;;481.45;;
13366;SDS011;6752;52.612;13.630;2023-05-13T09:59:40;1999.90;;;558.90;;
13366;SDS011;6752;52.612;13.630;2023-05-13T10:04:43;1999.90;;;508.67;;
13366;SDS011;6752;52.612;13.630;2023-05-13T10:09:45;1999.90;;;461.48;;
13366;SDS011;6752;52.612;13.630;2023-05-13T10:14:48;1999.90;;;539.63;;
13366;SDS011;6752;52.612;13.630;2023-05-13T10:19:51;1530.70;;;341.85;;
13366;SDS011;6752;52.612;13.630;2023-05-13T10:24:53;1999.90;;;485.95;;
13366;SDS011;6752;52.612;13.630;2023-05-13T10:29:55;1999.90;;;534.58;;
13366;SDS011;6752;52.612;13.630;2023-05-13T10:35:04;1973.78;;;379.00;;
13366;SDS011;6752;52.612;13.630;2023-05-13T10:40:14;1999.90;;;460.20;;
13366;SDS011;6752;52.612;13.630;2023-05-13T10:45:14;1999.90;;;432.52;;
13366;SDS011;6752;52.612;13.630;2023-05-13T10:50:23;1999.90;;;560.85;;
13366;SDS011;6752;52.612;13.630;2023-05-13T10:55:25;1999.90;;;480.83;;
13366;SDS011;6752;52.612;13.630;2023-05-13T11:00:29;1999.90;;;518.13;;
13366;SDS011;6752;52.612;13.630;2023-05-13T11:10:31;1999.90;;;525.38;;
13366;SDS011;6752;52.612;13.630;2023-05-13T11:15:50;1999.90;;;472.05;;
13366;SDS011;6752;52.612;13.630;2023-05-13T11:20:54;1999.90;;;502.85;;
13366;SDS011;6752;52.612;13.630;2023-05-13T11:26:12;1999.90;;;674.62;;
13366;SDS011;6752;52.612;13.630;2023-05-13T11:31:14;1999.90;;;477.55;;
13366;SDS011;6752;52.612;13.630;2023-05-13T11:36:16;1950.88;;;410.83;;
13366;SDS011;6752;52.612;13.630;2023-05-13T11:41:19;1999.90;;;452.30;;
13366;SDS011;6752;52.612;13.630;2023-05-13T11:46:21;1999.90;;;508.62;;
13366;SDS011;6752;52.612;13.630;2023-05-13T11:51:23;1999.90;;;522.67;;
13366;SDS011;6752;52.612;13.630;2023-05-13T11:56:26;1884.65;;;427.85;;
13366;SDS011;6752;52.612;13.630;2023-05-13T12:01:28;1999.90;;;474.55;;
13366;SDS011;6752;52.612;13.630;2023-05-13T12:26:38;1999.90;;;506.63;;
13366;SDS011;6752;52.612;13.630;2023-05-13T12:31:41;1153.25;;;300.80;;
13366;SDS011;6752;52.612;13.630;2023-05-13T12:36:43;1999.90;;;530.17;;
13366;SDS011;6752;52.612;13.630;2023-05-13T12:41:49;1999.90;;;487.62;;
13366;SDS011;6752;52.612;13.630;2023-05-13T12:51:53;1999.90;;;426.67;;
13366;SDS011;6752;52.612;13.630;2023-05-13T12:56:55;1999.90;;;511.73;;
13366;SDS011;6752;52.612;13.630;2023-05-13T13:01:57;1999.90;;;629.20;;
13366;SDS011;6752;52.612;13.630;2023-05-13T13:07:00;1999.90;;;474.88;;
13366;SDS011;6752;52.612;13.630;2023-05-13T13:12:02;1999.90;;;502.25;;
13366;SDS011;6752;52.612;13.630;2023-05-13T13:17:05;1999.90;;;490.42;;
13366;SDS011;6752;52.612;13.630;2023-05-13T13:22:07;1999.90;;;528.42;;
13366;SDS011;6752;52.612;13.630;2023-05-13T13:27:10;1999.90;;;999.90;;
13366;SDS011;6752;52.612;13.630;2023-05-13T13:32:12;1999.90;;;552.03;;
13366;SDS011;6752;52.612;13.630;2023-05-13T13:37:14;1999.90;;;470.02;;
13366;SDS011;6752;52.612;13.630;2023-05-13T13:42:17;1479.07;;;355.45;;
13366;SDS011;6752;52.612;13.630;2023-05-13T13:47:19;1999.90;;;473.65;;
13366;SDS011;6752;52.612;13.630;2023-05-13T13:52:21;1999.90;;;999.90;;
13366;SDS011;6752;52.612;13.630;2023-05-13T13:57:24;1999.90;;;639.90;;
13366;SDS011;6752;52.612;13.630;2023-05-13T14:02:26;1730.95;;;334.15;;
13366;SDS011;6752;52.612;13.630;2023-05-13T14:07:28;1003.28;;;238.65;;
13366;SDS011;6752;52.612;13.630;2023-05-13T14:12:31;1999.90;;;524.22;;
13366;SDS011;6752;52.612;13.630;2023-05-13T14:22:35;1656.22;;;318.83;;
13366;SDS011;6752;52.612;13.630;2023-05-13T14:27:37;1999.90;;;486.83;;
13366;SDS011;6752;52.612;13.630;2023-05-13T14:32:40;1999.90;;;470.52;;
13366;SDS011;6752;52.612;13.630;2023-05-13T14:37:42;1999.90;;;457.88;;
13366;SDS011;6752;52.612;13.630;2023-05-13T14:42:45;1542.57;;;341.80;;
13366;SDS011;6752;52.612;13.630;2023-05-13T14:47:47;1970.75;;;432.60;;
13366;SDS011;6752;52.612;13.630;2023-05-13T14:52:49;1146.05;;;278.67;;
13366;SDS011;6752;52.612;13.630;2023-05-13T14:57:52;1999.90;;;454.42;;
13366;SDS011;6752;52.612;13.630;2023-05-13T15:02:54;1885.03;;;419.67;;
13366;SDS011;6752;52.612;13.630;2023-05-13T15:07:57;1999.90;;;537.67;;
13366;SDS011;6752;52.612;13.630;2023-05-13T15:12:59;1999.90;;;453.50;;
13366;SDS011;6752;52.612;13.630;2023-05-13T15:18:01;1999.90;;;549.67;;
13366;SDS011;6752;52.612;13.630;2023-05-13T15:23:04;1999.90;;;492.23;;
13366;SDS011;6752;52.612;13.630;2023-05-13T15:28:06;1999.90;;;510.98;;
13366;SDS011;6752;52.612;13.630;2023-05-13T15:33:08;1999.90;;;550.12;;
13366;SDS011;6752;52.612;13.630;2023-05-13T15:38:11;1999.90;;;490.15;;
13366;SDS011;6752;52.612;13.630;2023-05-13T15:43:13;1999.90;;;999.90;;
13366;SDS011;6752;52.612;13.630;2023-05-13T15:48:16;1862.28;;;405.80;;
13366;SDS011;6752;52.612;13.630;2023-05-13T15:53:18;1999.90;;;468.48;;
13366;SDS011;6752;52.612;13.630;2023-05-13T15:58:20;1999.90;;;999.90;;
13366;SDS011;6752;52.612;13.630;2023-05-13T16:03:23;1999.90;;;595.15;;
13366;SDS011;6752;52.612;13.630;2023-05-13T16:08:25;1999.90;;;999.90;;
13366;SDS011;6752;52.612;13.630;2023-05-13T16:13:28;1999.90;;;999.90;;
13366;SDS011;6752;52.612;13.630;2023-05-13T16:18:30;1999.90;;;496.02;;
13366;SDS011;6752;52.612;13.630;2023-05-13T16:23:32;1999.90;;;440.52;;
13366;SDS011;6752;52.612;13.630;2023-05-13T16:28:35;1999.90;;;373.55;;
13366;SDS011;6752;52.612;13.630;2023-05-13T16:38:39;1999.90;;;488.40;;
13366;SDS011;6752;52.612;13.630;2023-05-13T16:43:41;1690.30;;;344.33;;
13366;SDS011;6752;52.612;13.630;2023-05-13T16:48:44;1998.30;;;318.02;;
13366;SDS011;6752;52.612;13.630;2023-05-13T16:58:48;1999.90;;;546.55;;
13366;SDS011;6752;52.612;13.630;2023-05-13T17:03:50;984.95;;;223.30;;
13366;SDS011;6752;52.612;13.630;2023-05-13T17:08:53;1883.68;;;302.23;;
13366;SDS011;6752;52.612;13.630;2023-05-13T17:13:55;1353.30;;;285.67;;
13366;SDS011;6752;52.612;13.630;2023-05-13T17:18:58;997.65;;;256.30;;
13366;SDS011;6752;52.612;13.630;2023-05-13T17:24:00;689.90;;;139.85;;
13366;SDS011;6752;52.612;13.630;2023-05-13T17:29:02;1629.18;;;318.98;;
13366;SDS011;6752;52.612;13.630;2023-05-13T17:34:05;551.50;;;124.90;;
13366;SDS011;6752;52.612;13.630;2023-05-13T17:39:07;379.23;;;90.35;;
13366;SDS011;6752;52.612;13.630;2023-05-13T17:44:09;1999.90;;;999.90;;
13366;SDS011;6752;52.612;13.630;2023-05-13T17:49:12;1337.85;;;305.17;;
13366;SDS011;6752;52.612;13.630;2023-05-13T17:54:14;575.35;;;117.82;;
13366;SDS011;6752;52.612;13.630;2023-05-13T17:59:17;1483.18;;;328.58;;
13366;SDS011;6752;52.612;13.630;2023-05-13T18:09:21;62.10;;;23.83;;
13366;SDS011;6752;52.612;13.630;2023-05-13T18:14:23;52.53;;;18.23;;
13366;SDS011;6752;52.612;13.630;2023-05-13T18:19:26;74.82;;;38.13;;
13366;SDS011;6752;52.612;13.630;2023-05-13T18:24:28;107.70;;;36.85;;
13366;SDS011;6752;52.612;13.630;2023-05-13T18:29:30;274.30;;;85.70;;
13366;SDS011;6752;52.612;13.630;2023-05-13T18:34:33;197.87;;;58.78;;
13366;SDS011;6752;52.612;13.630;2023-05-13T18:39:39;112.45;;;39.63;;
13366;SDS011;6752;52.612;13.630;2023-05-13T18:44:37;80.65;;;31.33;;
13366;SDS011;6752;52.612;13.630;2023-05-13T18:49:40;97.60;;;28.10;;
13366;SDS011;6752;52.612;13.630;2023-05-13T18:54:42;104.38;;;42.65;;
13366;SDS011;6752;52.612;13.630;2023-05-13T18:59:45;45.28;;;19.35;;
13366;SDS011;6752;52.612;13.630;2023-05-13T19:04:47;48.92;;;25.90;;
13366;SDS011;6752;52.612;13.630;2023-05-13T19:09:49;62.40;;;24.65;;
13366;SDS011;6752;52.612;13.630;2023-05-13T19:14:52;42.03;;;18.10;;
13366;SDS011;6752;52.612;13.630;2023-05-13T19:19:54;28.95;;;12.77;;
13366;SDS011;6752;52.612;13.630;2023-05-13T19:29:58;17.00;;;9.80;;
13366;SDS011;6752;52.612;13.630;2023-05-13T19:35:01;51.97;;;19.67;;
13366;SDS011;6752;52.612;13.630;2023-05-13T19:40:03;1999.90;;;999.90;;
13366;SDS011;6752;52.612;13.630;2023-05-13T19:45:06;99.15;;;37.63;;
13366;SDS011;6752;52.612;13.630;2023-05-13T19:50:08;24.90;;;11.98;;
13366;SDS011;6752;52.612;13.630;2023-05-13T19:55:10;17.05;;;10.93;;
13366;SDS011;6752;52.612;13.630;2023-05-13T20:00:13;19.45;;;9.07;;
13366;SDS011;6752;52.612;13.630;2023-05-13T20:05:15;9.82;;;7.97;;
13366;SDS011;6752;52.612;13.630;2023-05-13T20:10:17;11.50;;;7.60;;
13366;SDS011;6752;52.612;13.630;2023-05-13T20:15:20;13.57;;;7.20;;
13366;SDS011;6752;52.612;13.630;2023-05-13T20:20:22;11.25;;;7.20;;
13366;SDS011;6752;52.612;13.630;2023-05-13T20:25:25;1999.90;;;999.90;;
13366;SDS011;6752;52.612;13.630;2023-05-13T20:30:27;40.90;;;21.50;;
13366;SDS011;6752;52.612;13.630;2023-05-13T20:35:29;10.55;;;6.50;;
13366;SDS011;6752;52.612;13.630;2023-05-13T20:40:32;15.00;;;8.05;;
13366;SDS011;6752;52.612;13.630;2023-05-13T20:45:34;11.77;;;6.80;;
13366;SDS011;6752;52.612;13.630;2023-05-13T20:50:39;11.32;;;7.53;;
13366;SDS011;6752;52.612;13.630;2023-05-13T20:55:41;10.85;;;6.70;;
13366;SDS011;6752;52.612;13.630;2023-05-13T21:00:44;9.93;;;7.03;;
13366;SDS011;6752;52.612;13.630;2023-05-13T21:05:46;10.18;;;7.28;;
13366;SDS011;6752;52.612;13.630;2023-05-13T21:10:48;11.35;;;6.97;;
13366;SDS011;6752;52.612;13.630;2023-05-13T21:15:51;10.95;;;7.72;;
13366;SDS011;6752;52.612;13.630;2023-05-13T21:20:53;11.68;;;7.72;;
13366;SDS011;6752;52.612;13.630;2023-05-13T21:25:55;10.73;;;7.95;;
13366;SDS011;6752;52.612;13.630;2023-05-13T21:30:58;12.65;;;7.65;;
13366;SDS011;6752;52.612;13.630;2023-05-13T21:36:00;10.15;;;7.90;;
13366;SDS011;6752;52.612;13.630;2023-05-13T21:41:03;10.15;;;8.07;;
13366;SDS011;6752;52.612;13.630;2023-05-13T21:46:05;11.12;;;8.68;;
13366;SDS011;6752;52.612;13.630;2023-05-13T21:51:07;11.75;;;8.88;;
13366;SDS011;6752;52.612;13.630;2023-05-13T21:56:10;11.05;;;9.30;;
13366;SDS011;6752;52.612;13.630;2023-05-13T22:01:12;11.98;;;8.80;;
13366;SDS011;6752;52.612;13.630;2023-05-13T22:06:14;10.45;;;8.50;;
13366;SDS011;6752;52.612;13.630;2023-05-13T22:11:17;11.20;;;8.95;;
13366;SDS011;6752;52.612;13.630;2023-05-13T22:16:19;10.27;;;8.27;;
13366;SDS011;6752;52.612;13.630;2023-05-13T22:21:21;12.70;;;9.02;;
13366;SDS011;6752;52.612;13.630;2023-05-13T22:26:24;13.90;;;8.85;;
13366;SDS011;6752;52.612;13.630;2023-05-13T22:31:26;12.55;;;8.93;;
13366;SDS011;6752;52.612;13.630;2023-05-13T22:41:30;14.07;;;10.80;;
13366;SDS011;6752;52.612;13.630;2023-05-13T22:46:33;14.57;;;9.45;;
13366;SDS011;6752;52.612;13.630;2023-05-13T22:51:35;13.00;;;10.48;;
13366;SDS011;6752;52.612;13.630;2023-05-13T22:56:37;12.52;;;10.07;;
13366;SDS011;6752;52.612;13.630;2023-05-13T23:01:40;14.70;;;9.93;;
13366;SDS011;6752;52.612;13.630;2023-05-13T23:06:42;76.32;;;19.08;;
13366;SDS011;6752;52.612;13.630;2023-05-13T23:11:45;19.85;;;10.68;;
13366;SDS011;6752;52.612;13.630;2023-05-13T23:16:47;15.18;;;11.40;;
13366;SDS011;6752;52.612;13.630;2023-05-13T23:21:49;12.27;;;9.27;;
13366;SDS011;6752;52.612;13.630;2023-05-13T23:26:52;12.68;;;9.68;;
13366;SDS011;6752;52.612;13.630;2023-05-13T23:31:54;12.27;;;9.95;;
13366;SDS011;6752;52.612;13.630;2023-05-13T23:36:56;343.33;;;67.50;;
13366;SDS011;6752;52.612;13.630;2023-05-13T23:41:59;15.55;;;10.05;;
13366;SDS011;6752;52.612;13.630;2023-05-13T23:47:01;68.80;;;19.85;;
13366;SDS011;6752;52.612;13.630;2023-05-13T23:52:04;78.97;;;19.70;;
13366;SDS011;6752;52.612;13.630;2023-05-13T23:57:09;13.65;;;10.60;;
